Verdon, South Dakota
Current Conditions -  °F | °C
As of 9:53 AM on Tuesday 21 Oct 2014 (Local Time) from KABR Reporting Station
Clear Clear  
Wind Chill: 59°   Ceiling: Unl
Heat Index: 59°   Visibility: 10mi
Dew Point: 39°   Wind: 16mph
Humidity: 48%   Direction: 170°S
Pressure: 29.93"   Gusts: NA
Location:  45.1644°N, 98.0134°W
Report Text: KABR 211453Z AUTO 17014KT 10SM CLR 15/04 A2993 RMK AO2 SLP138 T01500039 56008
Loading
Personal Weather Stations






























Interactive Weather Map
Tropical Storm Tracking
New forecast layout! Learn more

10-Day Weather Forecast

Advertisements
Track Severe Weather on mobile